sensor_id;sensor_type;location;lat;lon;timestamp;P1;durP1;ratioP1;P2;durP2;ratioP2
9485;SDS011;4781;48.776;9.200;2023-04-02T00:01:02;2.50;;;0.72;;
9485;SDS011;4781;48.776;9.200;2023-04-02T00:04:04;2.12;;;0.65;;
9485;SDS011;4781;48.776;9.200;2023-04-02T00:08:59;1.15;;;0.60;;
9485;SDS011;4781;48.776;9.200;2023-04-02T00:11:44;1.47;;;0.68;;
9485;SDS011;4781;48.776;9.200;2023-04-02T00:14:20;1.93;;;0.53;;
9485;SDS011;4781;48.776;9.200;2023-04-02T00:16:56;1.20;;;0.60;;
9485;SDS011;4781;48.776;9.200;2023-04-02T00:19:40;0.90;;;0.50;;
9485;SDS011;4781;48.776;9.200;2023-04-02T00:22:19;1.17;;;0.53;;
9485;SDS011;4781;48.776;9.200;2023-04-02T00:24:46;1.85;;;0.80;;
9485;SDS011;4781;48.776;9.200;2023-04-02T00:27:20;1.50;;;0.70;;
9485;SDS011;4781;48.776;9.200;2023-04-02T00:29:50;1.95;;;0.60;;
9485;SDS011;4781;48.776;9.200;2023-04-02T00:32:25;1.20;;;0.62;;
9485;SDS011;4781;48.776;9.200;2023-04-02T00:34:57;1.00;;;0.50;;
9485;SDS011;4781;48.776;9.200;2023-04-02T00:37:27;1.42;;;0.60;;
9485;SDS011;4781;48.776;9.200;2023-04-02T00:40:00;1.10;;;0.62;;
9485;SDS011;4781;48.776;9.200;2023-04-02T00:42:33;1.70;;;0.80;;
9485;SDS011;4781;48.776;9.200;2023-04-02T00:45:05;1.67;;;0.68;;
9485;SDS011;4781;48.776;9.200;2023-04-02T00:47:37;1.45;;;0.50;;
9485;SDS011;4781;48.776;9.200;2023-04-02T00:52:44;1.60;;;0.70;;
9485;SDS011;4781;48.776;9.200;2023-04-02T00:58:24;1.90;;;0.62;;
9485;SDS011;4781;48.776;9.200;2023-04-02T01:01:00;1.10;;;0.67;;
9485;SDS011;4781;48.776;9.200;2023-04-02T01:03:33;1.77;;;0.70;;
9485;SDS011;4781;48.776;9.200;2023-04-02T01:06:07;1.92;;;0.62;;
9485;SDS011;4781;48.776;9.200;2023-04-02T01:08:53;1.37;;;0.60;;
9485;SDS011;4781;48.776;9.200;2023-04-02T01:20:44;1.22;;;0.60;;
9485;SDS011;4781;48.776;9.200;2023-04-02T01:29:22;1.62;;;0.60;;
9485;SDS011;4781;48.776;9.200;2023-04-02T01:31:56;1.35;;;0.60;;
9485;SDS011;4781;48.776;9.200;2023-04-02T01:34:28;1.45;;;0.53;;
9485;SDS011;4781;48.776;9.200;2023-04-02T01:37:01;1.65;;;0.60;;
9485;SDS011;4781;48.776;9.200;2023-04-02T01:40:03;2.37;;;0.57;;
9485;SDS011;4781;48.776;9.200;2023-04-02T01:45:17;2.25;;;0.70;;
9485;SDS011;4781;48.776;9.200;2023-04-02T01:47:48;1.98;;;0.50;;
9485;SDS011;4781;48.776;9.200;2023-04-02T01:50:23;2.10;;;0.82;;
9485;SDS011;4781;48.776;9.200;2023-04-02T01:53:03;0.72;;;0.50;;
9485;SDS011;4781;48.776;9.200;2023-04-02T01:55:32;0.90;;;0.50;;
9485;SDS011;4781;48.776;9.200;2023-04-02T01:58:19;3.00;;;0.60;;
9485;SDS011;4781;48.776;9.200;2023-04-02T02:00:55;1.30;;;0.60;;
9485;SDS011;4781;48.776;9.200;2023-04-02T02:03:22;2.22;;;0.60;;
9485;SDS011;4781;48.776;9.200;2023-04-02T02:05:51;1.00;;;0.60;;
9485;SDS011;4781;48.776;9.200;2023-04-02T02:11:26;1.15;;;0.50;;
9485;SDS011;4781;48.776;9.200;2023-04-02T02:13:58;2.75;;;0.53;;
9485;SDS011;4781;48.776;9.200;2023-04-02T02:16:30;2.08;;;0.80;;
9485;SDS011;4781;48.776;9.200;2023-04-02T02:19:02;1.47;;;0.60;;
9485;SDS011;4781;48.776;9.200;2023-04-02T02:21:36;1.62;;;0.60;;
9485;SDS011;4781;48.776;9.200;2023-04-02T02:24:18;2.27;;;0.88;;
9485;SDS011;4781;48.776;9.200;2023-04-02T02:29:53;1.67;;;0.72;;
9485;SDS011;4781;48.776;9.200;2023-04-02T02:32:32;2.37;;;0.72;;
9485;SDS011;4781;48.776;9.200;2023-04-02T02:35:14;0.90;;;0.60;;
9485;SDS011;4781;48.776;9.200;2023-04-02T02:37:55;1.15;;;0.50;;
9485;SDS011;4781;48.776;9.200;2023-04-02T02:40:52;2.10;;;0.75;;
9485;SDS011;4781;48.776;9.200;2023-04-02T02:43:24;2.15;;;0.72;;
9485;SDS011;4781;48.776;9.200;2023-04-02T02:45:53;2.08;;;0.70;;
9485;SDS011;4781;48.776;9.200;2023-04-02T02:48:31;1.07;;;0.65;;
9485;SDS011;4781;48.776;9.200;2023-04-02T02:50:56;1.92;;;0.70;;
9485;SDS011;4781;48.776;9.200;2023-04-02T02:53:25;0.90;;;0.60;;
9485;SDS011;4781;48.776;9.200;2023-04-02T02:55:58;1.62;;;0.65;;
9485;SDS011;4781;48.776;9.200;2023-04-02T02:58:28;2.05;;;0.70;;
9485;SDS011;4781;48.776;9.200;2023-04-02T03:00:58;2.70;;;0.80;;
9485;SDS011;4781;48.776;9.200;2023-04-02T03:03:27;1.87;;;1.30;;
9485;SDS011;4781;48.776;9.200;2023-04-02T03:05:59;1.90;;;0.70;;
9485;SDS011;4781;48.776;9.200;2023-04-02T03:08:42;1.02;;;0.60;;
9485;SDS011;4781;48.776;9.200;2023-04-02T03:14:34;1.35;;;0.65;;
9485;SDS011;4781;48.776;9.200;2023-04-02T03:17:16;2.12;;;0.70;;
9485;SDS011;4781;48.776;9.200;2023-04-02T03:20:00;2.72;;;0.70;;
9485;SDS011;4781;48.776;9.200;2023-04-02T03:22:33;0.68;;;0.40;;
9485;SDS011;4781;48.776;9.200;2023-04-02T03:27:57;1.22;;;0.70;;
9485;SDS011;4781;48.776;9.200;2023-04-02T03:30:34;2.58;;;0.72;;
9485;SDS011;4781;48.776;9.200;2023-04-02T03:33:14;2.00;;;0.68;;
9485;SDS011;4781;48.776;9.200;2023-04-02T03:36:02;2.45;;;0.70;;
9485;SDS011;4781;48.776;9.200;2023-04-02T03:41:50;3.67;;;0.80;;
9485;SDS011;4781;48.776;9.200;2023-04-02T03:44:27;1.47;;;0.60;;
9485;SDS011;4781;48.776;9.200;2023-04-02T03:47:09;3.17;;;0.90;;
9485;SDS011;4781;48.776;9.200;2023-04-02T03:49:47;2.87;;;0.80;;
9485;SDS011;4781;48.776;9.200;2023-04-02T03:52:23;1.77;;;0.70;;
9485;SDS011;4781;48.776;9.200;2023-04-02T03:54:55;1.22;;;0.55;;
9485;SDS011;4781;48.776;9.200;2023-04-02T03:57:34;1.87;;;0.80;;
9485;SDS011;4781;48.776;9.200;2023-04-02T04:00:15;2.35;;;0.78;;
9485;SDS011;4781;48.776;9.200;2023-04-02T04:02:47;3.83;;;0.60;;
9485;SDS011;4781;48.776;9.200;2023-04-02T04:05:29;5.35;;;0.68;;
9485;SDS011;4781;48.776;9.200;2023-04-02T04:08:14;2.80;;;0.60;;
9485;SDS011;4781;48.776;9.200;2023-04-02T04:10:51;0.90;;;0.45;;
9485;SDS011;4781;48.776;9.200;2023-04-02T04:16:25;2.37;;;0.57;;
9485;SDS011;4781;48.776;9.200;2023-04-02T04:19:00;1.60;;;0.60;;
9485;SDS011;4781;48.776;9.200;2023-04-02T04:21:38;1.00;;;0.55;;
9485;SDS011;4781;48.776;9.200;2023-04-02T04:24:23;0.72;;;0.60;;
9485;SDS011;4781;48.776;9.200;2023-04-02T04:26:55;1.72;;;0.70;;
9485;SDS011;4781;48.776;9.200;2023-04-02T04:29:54;2.70;;;0.70;;
9485;SDS011;4781;48.776;9.200;2023-04-02T04:32:28;1.00;;;0.50;;
9485;SDS011;4781;48.776;9.200;2023-04-02T04:35:47;1.37;;;0.55;;
9485;SDS011;4781;48.776;9.200;2023-04-02T04:38:11;3.55;;;0.70;;
9485;SDS011;4781;48.776;9.200;2023-04-02T04:40:44;1.20;;;0.70;;
9485;SDS011;4781;48.776;9.200;2023-04-02T04:46:54;1.50;;;0.80;;
9485;SDS011;4781;48.776;9.200;2023-04-02T04:52:25;4.28;;;1.00;;
9485;SDS011;4781;48.776;9.200;2023-04-02T04:54:53;0.82;;;0.60;;
9485;SDS011;4781;48.776;9.200;2023-04-02T04:57:29;1.82;;;0.75;;
9485;SDS011;4781;48.776;9.200;2023-04-02T05:00:04;1.95;;;0.68;;
9485;SDS011;4781;48.776;9.200;2023-04-02T05:06:12;2.22;;;0.90;;
9485;SDS011;4781;48.776;9.200;2023-04-02T05:08:42;2.50;;;0.88;;
9485;SDS011;4781;48.776;9.200;2023-04-02T05:11:33;0.93;;;0.50;;
9485;SDS011;4781;48.776;9.200;2023-04-02T05:14:02;3.20;;;0.98;;
9485;SDS011;4781;48.776;9.200;2023-04-02T05:16:41;2.33;;;0.98;;
9485;SDS011;4781;48.776;9.200;2023-04-02T05:19:16;2.52;;;1.00;;
9485;SDS011;4781;48.776;9.200;2023-04-02T05:27:58;3.45;;;0.60;;
9485;SDS011;4781;48.776;9.200;2023-04-02T05:30:57;2.22;;;1.10;;
9485;SDS011;4781;48.776;9.200;2023-04-02T05:33:39;1.42;;;0.68;;
9485;SDS011;4781;48.776;9.200;2023-04-02T05:36:17;1.40;;;0.60;;
9485;SDS011;4781;48.776;9.200;2023-04-02T05:38:55;1.92;;;0.82;;
9485;SDS011;4781;48.776;9.200;2023-04-02T05:41:28;2.52;;;1.10;;
9485;SDS011;4781;48.776;9.200;2023-04-02T05:44:20;1.92;;;0.80;;
9485;SDS011;4781;48.776;9.200;2023-04-02T05:46:53;3.00;;;1.17;;
9485;SDS011;4781;48.776;9.200;2023-04-02T05:49:38;1.22;;;0.60;;
9485;SDS011;4781;48.776;9.200;2023-04-02T05:52:22;1.75;;;0.90;;
9485;SDS011;4781;48.776;9.200;2023-04-02T05:58:37;3.55;;;1.37;;
9485;SDS011;4781;48.776;9.200;2023-04-02T06:03:56;2.05;;;0.80;;
9485;SDS011;4781;48.776;9.200;2023-04-02T06:12:11;3.30;;;0.80;;
9485;SDS011;4781;48.776;9.200;2023-04-02T06:15:00;2.67;;;1.23;;
9485;SDS011;4781;48.776;9.200;2023-04-02T06:17:31;2.60;;;0.90;;
9485;SDS011;4781;48.776;9.200;2023-04-02T06:20:04;3.50;;;0.80;;
9485;SDS011;4781;48.776;9.200;2023-04-02T06:22:35;3.67;;;0.80;;
9485;SDS011;4781;48.776;9.200;2023-04-02T06:25:12;2.08;;;0.85;;
9485;SDS011;4781;48.776;9.200;2023-04-02T06:28:00;1.42;;;0.62;;
9485;SDS011;4781;48.776;9.200;2023-04-02T06:30:36;3.65;;;0.80;;
9485;SDS011;4781;48.776;9.200;2023-04-02T06:33:04;2.90;;;0.90;;
9485;SDS011;4781;48.776;9.200;2023-04-02T06:35:34;3.22;;;1.00;;
9485;SDS011;4781;48.776;9.200;2023-04-02T06:38:06;2.12;;;0.88;;
9485;SDS011;4781;48.776;9.200;2023-04-02T06:40:48;2.15;;;0.80;;
9485;SDS011;4781;48.776;9.200;2023-04-02T06:43:24;1.60;;;0.93;;
9485;SDS011;4781;48.776;9.200;2023-04-02T06:46:02;1.87;;;0.90;;
9485;SDS011;4781;48.776;9.200;2023-04-02T06:48:35;2.37;;;1.00;;
9485;SDS011;4781;48.776;9.200;2023-04-02T06:51:06;3.47;;;1.27;;
9485;SDS011;4781;48.776;9.200;2023-04-02T06:53:42;3.37;;;1.57;;
9485;SDS011;4781;48.776;9.200;2023-04-02T06:59:16;2.72;;;1.07;;
9485;SDS011;4781;48.776;9.200;2023-04-02T07:01:47;2.67;;;1.00;;
9485;SDS011;4781;48.776;9.200;2023-04-02T07:04:19;2.72;;;1.02;;
9485;SDS011;4781;48.776;9.200;2023-04-02T07:06:48;2.55;;;0.93;;
9485;SDS011;4781;48.776;9.200;2023-04-02T07:09:16;1.62;;;0.78;;
9485;SDS011;4781;48.776;9.200;2023-04-02T07:11:45;3.00;;;0.80;;
9485;SDS011;4781;48.776;9.200;2023-04-02T07:14:13;3.80;;;1.05;;
9485;SDS011;4781;48.776;9.200;2023-04-02T07:16:42;2.12;;;0.85;;
9485;SDS011;4781;48.776;9.200;2023-04-02T07:19:16;3.98;;;1.07;;
9485;SDS011;4781;48.776;9.200;2023-04-02T07:22:00;2.45;;;0.90;;
9485;SDS011;4781;48.776;9.200;2023-04-02T07:24:28;3.15;;;1.20;;
9485;SDS011;4781;48.776;9.200;2023-04-02T07:26:57;2.90;;;1.10;;
9485;SDS011;4781;48.776;9.200;2023-04-02T07:29:25;2.05;;;0.90;;
9485;SDS011;4781;48.776;9.200;2023-04-02T07:31:54;2.90;;;1.00;;
9485;SDS011;4781;48.776;9.200;2023-04-02T07:34:22;2.58;;;0.90;;
9485;SDS011;4781;48.776;9.200;2023-04-02T07:36:51;2.22;;;0.90;;
9485;SDS011;4781;48.776;9.200;2023-04-02T07:39:20;3.12;;;0.90;;
9485;SDS011;4781;48.776;9.200;2023-04-02T07:41:55;2.33;;;1.00;;
9485;SDS011;4781;48.776;9.200;2023-04-02T07:44:26;3.12;;;0.90;;
9485;SDS011;4781;48.776;9.200;2023-04-02T07:46:55;2.60;;;0.80;;
9485;SDS011;4781;48.776;9.200;2023-04-02T07:49:23;2.77;;;1.00;;
9485;SDS011;4781;48.776;9.200;2023-04-02T07:51:52;1.85;;;0.93;;
9485;SDS011;4781;48.776;9.200;2023-04-02T07:54:20;4.40;;;1.65;;
9485;SDS011;4781;48.776;9.200;2023-04-02T07:56:49;2.30;;;0.80;;
9485;SDS011;4781;48.776;9.200;2023-04-02T07:59:17;2.77;;;0.85;;
9485;SDS011;4781;48.776;9.200;2023-04-02T08:01:46;1.57;;;0.80;;
9485;SDS011;4781;48.776;9.200;2023-04-02T08:04:18;3.75;;;1.00;;
9485;SDS011;4781;48.776;9.200;2023-04-02T08:06:49;2.45;;;0.90;;
9485;SDS011;4781;48.776;9.200;2023-04-02T08:09:17;2.00;;;0.80;;
9485;SDS011;4781;48.776;9.200;2023-04-02T08:11:46;3.15;;;1.10;;
9485;SDS011;4781;48.776;9.200;2023-04-02T08:14:14;4.10;;;1.52;;
9485;SDS011;4781;48.776;9.200;2023-04-02T08:16:51;3.58;;;1.20;;
9485;SDS011;4781;48.776;9.200;2023-04-02T08:19:20;4.72;;;1.45;;
9485;SDS011;4781;48.776;9.200;2023-04-02T08:21:49;2.75;;;1.45;;
9485;SDS011;4781;48.776;9.200;2023-04-02T08:24:19;3.08;;;1.50;;
9485;SDS011;4781;48.776;9.200;2023-04-02T08:26:49;3.85;;;1.50;;
9485;SDS011;4781;48.776;9.200;2023-04-02T08:29:19;3.67;;;1.30;;
9485;SDS011;4781;48.776;9.200;2023-04-02T08:31:48;4.58;;;1.32;;
9485;SDS011;4781;48.776;9.200;2023-04-02T08:34:16;4.10;;;1.17;;
9485;SDS011;4781;48.776;9.200;2023-04-02T08:36:45;4.20;;;1.47;;
9485;SDS011;4781;48.776;9.200;2023-04-02T08:39:14;2.75;;;1.15;;
9485;SDS011;4781;48.776;9.200;2023-04-02T08:44:48;2.83;;;1.10;;
9485;SDS011;4781;48.776;9.200;2023-04-02T08:47:33;4.62;;;1.57;;
9485;SDS011;4781;48.776;9.200;2023-04-02T08:50:23;3.65;;;1.20;;
9485;SDS011;4781;48.776;9.200;2023-04-02T08:53:11;2.35;;;0.98;;
9485;SDS011;4781;48.776;9.200;2023-04-02T08:55:57;2.83;;;1.12;;
9485;SDS011;4781;48.776;9.200;2023-04-02T08:58:49;3.67;;;1.10;;
9485;SDS011;4781;48.776;9.200;2023-04-02T09:06:47;2.58;;;1.02;;
9485;SDS011;4781;48.776;9.200;2023-04-02T09:09:38;2.85;;;1.00;;
9485;SDS011;4781;48.776;9.200;2023-04-02T09:12:17;2.30;;;0.98;;
9485;SDS011;4781;48.776;9.200;2023-04-02T09:14:52;2.55;;;0.93;;
9485;SDS011;4781;48.776;9.200;2023-04-02T09:17:34;3.52;;;1.02;;
9485;SDS011;4781;48.776;9.200;2023-04-02T09:20:14;4.42;;;1.30;;
9485;SDS011;4781;48.776;9.200;2023-04-02T09:22:49;2.30;;;0.93;;
9485;SDS011;4781;48.776;9.200;2023-04-02T09:25:20;2.22;;;1.07;;
9485;SDS011;4781;48.776;9.200;2023-04-02T09:27:56;2.83;;;1.20;;
9485;SDS011;4781;48.776;9.200;2023-04-02T09:33:41;3.42;;;1.25;;
9485;SDS011;4781;48.776;9.200;2023-04-02T09:36:27;8.43;;;1.07;;
9485;SDS011;4781;48.776;9.200;2023-04-02T09:39:15;2.85;;;1.10;;
9485;SDS011;4781;48.776;9.200;2023-04-02T09:41:43;5.37;;;1.20;;
9485;SDS011;4781;48.776;9.200;2023-04-02T09:44:17;3.17;;;1.02;;
9485;SDS011;4781;48.776;9.200;2023-04-02T09:46:56;2.55;;;1.00;;
9485;SDS011;4781;48.776;9.200;2023-04-02T09:49:33;2.42;;;1.10;;
9485;SDS011;4781;48.776;9.200;2023-04-02T09:52:47;3.25;;;1.05;;
9485;SDS011;4781;48.776;9.200;2023-04-02T09:57:47;2.30;;;1.10;;
9485;SDS011;4781;48.776;9.200;2023-04-02T10:00:24;3.72;;;1.10;;
9485;SDS011;4781;48.776;9.200;2023-04-02T10:05:32;2.25;;;0.90;;
9485;SDS011;4781;48.776;9.200;2023-04-02T10:08:18;2.77;;;1.12;;
9485;SDS011;4781;48.776;9.200;2023-04-02T10:10:58;2.00;;;1.00;;
9485;SDS011;4781;48.776;9.200;2023-04-02T10:16:32;4.22;;;1.40;;
9485;SDS011;4781;48.776;9.200;2023-04-02T10:19:18;3.12;;;0.68;;
9485;SDS011;4781;48.776;9.200;2023-04-02T10:22:11;2.50;;;0.90;;
9485;SDS011;4781;48.776;9.200;2023-04-02T10:24:41;3.35;;;0.80;;
9485;SDS011;4781;48.776;9.200;2023-04-02T10:32:59;1.98;;;0.95;;
9485;SDS011;4781;48.776;9.200;2023-04-02T10:35:38;2.95;;;0.70;;
9485;SDS011;4781;48.776;9.200;2023-04-02T10:38:14;2.05;;;1.00;;
9485;SDS011;4781;48.776;9.200;2023-04-02T10:40:57;1.75;;;0.90;;
9485;SDS011;4781;48.776;9.200;2023-04-02T10:52:07;3.10;;;1.00;;
9485;SDS011;4781;48.776;9.200;2023-04-02T10:55:31;2.65;;;1.12;;
9485;SDS011;4781;48.776;9.200;2023-04-02T10:58:05;2.72;;;0.88;;
9485;SDS011;4781;48.776;9.200;2023-04-02T11:00:40;3.27;;;1.20;;
9485;SDS011;4781;48.776;9.200;2023-04-02T11:06:05;3.45;;;1.10;;
9485;SDS011;4781;48.776;9.200;2023-04-02T11:09:14;3.67;;;1.10;;
9485;SDS011;4781;48.776;9.200;2023-04-02T11:11:47;2.33;;;1.00;;
9485;SDS011;4781;48.776;9.200;2023-04-02T11:14:22;1.77;;;0.85;;
9485;SDS011;4781;48.776;9.200;2023-04-02T11:17:10;1.50;;;0.90;;
9485;SDS011;4781;48.776;9.200;2023-04-02T11:19:41;2.30;;;0.90;;
9485;SDS011;4781;48.776;9.200;2023-04-02T11:22:13;2.83;;;0.90;;
9485;SDS011;4781;48.776;9.200;2023-04-02T11:24:52;2.92;;;0.70;;
9485;SDS011;4781;48.776;9.200;2023-04-02T11:27:27;2.08;;;0.95;;
9485;SDS011;4781;48.776;9.200;2023-04-02T11:30:02;2.15;;;0.80;;
9485;SDS011;4781;48.776;9.200;2023-04-02T11:32:36;1.45;;;0.72;;
9485;SDS011;4781;48.776;9.200;2023-04-02T11:38:02;1.37;;;0.60;;
9485;SDS011;4781;48.776;9.200;2023-04-02T11:49:40;1.12;;;0.60;;
9485;SDS011;4781;48.776;9.200;2023-04-02T11:52:00;0.82;;;0.53;;
9485;SDS011;4781;48.776;9.200;2023-04-02T11:54:32;1.67;;;0.60;;
9485;SDS011;4781;48.776;9.200;2023-04-02T11:57:09;1.50;;;0.62;;
9485;SDS011;4781;48.776;9.200;2023-04-02T11:59:48;2.20;;;0.60;;
9485;SDS011;4781;48.776;9.200;2023-04-02T12:02:35;1.22;;;0.72;;
9485;SDS011;4781;48.776;9.200;2023-04-02T12:05:08;1.72;;;0.80;;
9485;SDS011;4781;48.776;9.200;2023-04-02T12:07:54;0.72;;;0.50;;
9485;SDS011;4781;48.776;9.200;2023-04-02T12:10:33;1.12;;;0.60;;
9485;SDS011;4781;48.776;9.200;2023-04-02T12:16:11;1.17;;;0.50;;
9485;SDS011;4781;48.776;9.200;2023-04-02T12:18:48;1.22;;;0.60;;
9485;SDS011;4781;48.776;9.200;2023-04-02T12:21:17;2.92;;;0.75;;
9485;SDS011;4781;48.776;9.200;2023-04-02T12:23:50;1.37;;;0.50;;
9485;SDS011;4781;48.776;9.200;2023-04-02T12:26:26;1.30;;;0.60;;
9485;SDS011;4781;48.776;9.200;2023-04-02T12:31:54;2.20;;;0.80;;
9485;SDS011;4781;48.776;9.200;2023-04-02T12:34:25;0.88;;;0.53;;
9485;SDS011;4781;48.776;9.200;2023-04-02T12:37:00;1.30;;;0.60;;
9485;SDS011;4781;48.776;9.200;2023-04-02T12:39:28;1.27;;;0.65;;
9485;SDS011;4781;48.776;9.200;2023-04-02T12:41:58;2.60;;;0.85;;
9485;SDS011;4781;48.776;9.200;2023-04-02T12:44:27;1.52;;;0.80;;
9485;SDS011;4781;48.776;9.200;2023-04-02T12:46:57;3.47;;;1.35;;
9485;SDS011;4781;48.776;9.200;2023-04-02T12:49:35;1.45;;;0.72;;
9485;SDS011;4781;48.776;9.200;2023-04-02T12:52:12;2.08;;;0.80;;
9485;SDS011;4781;48.776;9.200;2023-04-02T12:54:53;5.00;;;0.70;;
9485;SDS011;4781;48.776;9.200;2023-04-02T12:57:21;1.05;;;0.75;;
9485;SDS011;4781;48.776;9.200;2023-04-02T13:05:47;1.02;;;0.55;;
9485;SDS011;4781;48.776;9.200;2023-04-02T13:08:27;0.95;;;0.60;;
9485;SDS011;4781;48.776;9.200;2023-04-02T13:10:59;1.10;;;0.50;;
9485;SDS011;4781;48.776;9.200;2023-04-02T13:13:33;1.87;;;0.90;;
9485;SDS011;4781;48.776;9.200;2023-04-02T13:19:07;2.05;;;0.90;;
9485;SDS011;4781;48.776;9.200;2023-04-02T13:21:52;1.37;;;0.80;;
9485;SDS011;4781;48.776;9.200;2023-04-02T13:24:23;2.20;;;1.00;;
9485;SDS011;4781;48.776;9.200;2023-04-02T13:26:55;2.05;;;0.95;;
9485;SDS011;4781;48.776;9.200;2023-04-02T13:29:32;2.08;;;1.20;;
9485;SDS011;4781;48.776;9.200;2023-04-02T13:32:03;2.35;;;1.20;;
9485;SDS011;4781;48.776;9.200;2023-04-02T13:34:33;4.17;;;1.32;;
9485;SDS011;4781;48.776;9.200;2023-04-02T13:37:02;2.47;;;1.40;;
9485;SDS011;4781;48.776;9.200;2023-04-02T13:39:30;3.25;;;1.37;;
9485;SDS011;4781;48.776;9.200;2023-04-02T13:42:00;2.40;;;1.20;;
9485;SDS011;4781;48.776;9.200;2023-04-02T13:44:32;2.60;;;1.12;;
9485;SDS011;4781;48.776;9.200;2023-04-02T13:47:04;1.72;;;1.10;;
9485;SDS011;4781;48.776;9.200;2023-04-02T13:49:33;2.15;;;1.20;;
9485;SDS011;4781;48.776;9.200;2023-04-02T13:52:02;2.00;;;1.07;;
9485;SDS011;4781;48.776;9.200;2023-04-02T13:54:42;2.65;;;1.30;;
9485;SDS011;4781;48.776;9.200;2023-04-02T13:57:23;2.00;;;1.10;;
9485;SDS011;4781;48.776;9.200;2023-04-02T13:59:51;1.85;;;1.10;;
9485;SDS011;4781;48.776;9.200;2023-04-02T14:02:20;2.12;;;1.20;;
9485;SDS011;4781;48.776;9.200;2023-04-02T14:04:52;2.02;;;1.00;;
9485;SDS011;4781;48.776;9.200;2023-04-02T14:32:01;2.85;;;1.40;;
9485;SDS011;4781;48.776;9.200;2023-04-02T14:35:22;3.65;;;1.77;;
9485;SDS011;4781;48.776;9.200;2023-04-02T14:43:23;1.85;;;1.10;;
9485;SDS011;4781;48.776;9.200;2023-04-02T14:46:00;2.58;;;1.40;;
9485;SDS011;4781;48.776;9.200;2023-04-02T14:51:44;3.22;;;1.40;;
9485;SDS011;4781;48.776;9.200;2023-04-02T14:57:39;2.40;;;1.30;;
9485;SDS011;4781;48.776;9.200;2023-04-02T15:05:55;2.37;;;1.17;;
9485;SDS011;4781;48.776;9.200;2023-04-02T15:16:43;2.40;;;1.37;;
9485;SDS011;4781;48.776;9.200;2023-04-02T15:19:15;3.67;;;1.40;;
9485;SDS011;4781;48.776;9.200;2023-04-02T15:22:23;2.25;;;1.20;;
9485;SDS011;4781;48.776;9.200;2023-04-02T15:25:05;3.25;;;1.40;;
9485;SDS011;4781;48.776;9.200;2023-04-02T15:28:11;2.83;;;1.20;;
9485;SDS011;4781;48.776;9.200;2023-04-02T15:30:51;1.83;;;1.20;;
9485;SDS011;4781;48.776;9.200;2023-04-02T15:33:30;2.52;;;1.37;;
9485;SDS011;4781;48.776;9.200;2023-04-02T15:39:28;2.20;;;1.30;;
9485;SDS011;4781;48.776;9.200;2023-04-02T15:42:27;3.62;;;1.30;;
9485;SDS011;4781;48.776;9.200;2023-04-02T15:47:45;3.35;;;1.50;;
9485;SDS011;4781;48.776;9.200;2023-04-02T16:01:51;2.20;;;1.15;;
9485;SDS011;4781;48.776;9.200;2023-04-02T16:04:40;2.72;;;1.20;;
9485;SDS011;4781;48.776;9.200;2023-04-02T16:10:18;2.70;;;1.40;;
9485;SDS011;4781;48.776;9.200;2023-04-02T16:13:01;2.65;;;1.32;;
9485;SDS011;4781;48.776;9.200;2023-04-02T16:15:50;3.07;;;1.30;;
9485;SDS011;4781;48.776;9.200;2023-04-02T16:19:21;2.37;;;1.40;;
9485;SDS011;4781;48.776;9.200;2023-04-02T16:21:32;4.35;;;1.70;;
9485;SDS011;4781;48.776;9.200;2023-04-02T16:24:11;4.42;;;1.70;;
9485;SDS011;4781;48.776;9.200;2023-04-02T16:26:42;2.70;;;1.40;;
9485;SDS011;4781;48.776;9.200;2023-04-02T16:29:25;2.95;;;1.40;;
9485;SDS011;4781;48.776;9.200;2023-04-02T16:32:28;2.87;;;1.40;;
9485;SDS011;4781;48.776;9.200;2023-04-02T16:38:23;2.58;;;1.45;;
9485;SDS011;4781;48.776;9.200;2023-04-02T16:41:20;2.85;;;1.60;;
9485;SDS011;4781;48.776;9.200;2023-04-02T16:50:07;2.90;;;1.57;;
9485;SDS011;4781;48.776;9.200;2023-04-02T16:53:14;3.15;;;1.70;;
9485;SDS011;4781;48.776;9.200;2023-04-02T16:59:12;4.58;;;3.02;;
9485;SDS011;4781;48.776;9.200;2023-04-02T17:08:04;3.42;;;2.17;;
9485;SDS011;4781;48.776;9.200;2023-04-02T17:10:45;3.20;;;2.00;;
9485;SDS011;4781;48.776;9.200;2023-04-02T17:13:39;3.70;;;1.95;;
9485;SDS011;4781;48.776;9.200;2023-04-02T17:16:18;4.57;;;2.83;;
9485;SDS011;4781;48.776;9.200;2023-04-02T17:18:53;3.30;;;1.87;;
9485;SDS011;4781;48.776;9.200;2023-04-02T17:21:24;3.12;;;1.60;;
9485;SDS011;4781;48.776;9.200;2023-04-02T17:24:01;2.90;;;1.55;;
9485;SDS011;4781;48.776;9.200;2023-04-02T17:26:29;3.33;;;1.85;;
9485;SDS011;4781;48.776;9.200;2023-04-02T17:29:03;2.72;;;1.50;;
9485;SDS011;4781;48.776;9.200;2023-04-02T17:31:32;4.03;;;1.87;;
9485;SDS011;4781;48.776;9.200;2023-04-02T17:34:08;3.58;;;1.80;;
9485;SDS011;4781;48.776;9.200;2023-04-02T17:42:13;3.00;;;1.70;;
9485;SDS011;4781;48.776;9.200;2023-04-02T17:56:34;4.95;;;2.45;;
9485;SDS011;4781;48.776;9.200;2023-04-02T18:05:27;4.87;;;3.25;;
9485;SDS011;4781;48.776;9.200;2023-04-02T18:19:17;5.33;;;3.33;;
9485;SDS011;4781;48.776;9.200;2023-04-02T18:22:25;4.15;;;2.60;;
9485;SDS011;4781;48.776;9.200;2023-04-02T18:25:16;4.55;;;2.85;;
9485;SDS011;4781;48.776;9.200;2023-04-02T18:31:33;4.22;;;2.77;;
9485;SDS011;4781;48.776;9.200;2023-04-02T18:39:29;6.15;;;3.08;;
9485;SDS011;4781;48.776;9.200;2023-04-02T18:46:59;5.35;;;3.10;;
9485;SDS011;4781;48.776;9.200;2023-04-02T18:49:44;5.47;;;3.37;;
9485;SDS011;4781;48.776;9.200;2023-04-02T18:52:12;5.65;;;3.40;;
9485;SDS011;4781;48.776;9.200;2023-04-02T18:54:54;5.37;;;3.42;;
9485;SDS011;4781;48.776;9.200;2023-04-02T18:57:29;5.45;;;3.45;;
9485;SDS011;4781;48.776;9.200;2023-04-02T19:05:48;10.58;;;3.42;;
9485;SDS011;4781;48.776;9.200;2023-04-02T19:08:30;6.70;;;3.55;;
9485;SDS011;4781;48.776;9.200;2023-04-02T19:11:08;7.33;;;4.33;;
9485;SDS011;4781;48.776;9.200;2023-04-02T19:13:39;4.90;;;3.10;;
9485;SDS011;4781;48.776;9.200;2023-04-02T19:19:10;7.17;;;3.95;;
9485;SDS011;4781;48.776;9.200;2023-04-02T19:22:11;6.05;;;3.50;;
9485;SDS011;4781;48.776;9.200;2023-04-02T19:27:53;5.42;;;3.12;;
9485;SDS011;4781;48.776;9.200;2023-04-02T19:33:51;5.05;;;3.15;;
9485;SDS011;4781;48.776;9.200;2023-04-02T19:39:36;4.50;;;2.70;;
9485;SDS011;4781;48.776;9.200;2023-04-02T19:45:26;5.92;;;2.75;;
9485;SDS011;4781;48.776;9.200;2023-04-02T19:48:00;7.10;;;2.72;;
9485;SDS011;4781;48.776;9.200;2023-04-02T19:50:37;4.62;;;2.70;;
9485;SDS011;4781;48.776;9.200;2023-04-02T19:53:06;5.42;;;3.00;;
9485;SDS011;4781;48.776;9.200;2023-04-02T19:55:34;6.20;;;3.17;;
9485;SDS011;4781;48.776;9.200;2023-04-02T19:58:03;6.95;;;2.95;;
9485;SDS011;4781;48.776;9.200;2023-04-02T20:00:32;6.53;;;2.98;;
9485;SDS011;4781;48.776;9.200;2023-04-02T20:03:00;5.85;;;3.17;;
9485;SDS011;4781;48.776;9.200;2023-04-02T20:05:28;4.78;;;2.98;;
9485;SDS011;4781;48.776;9.200;2023-04-02T20:07:57;5.95;;;3.20;;
9485;SDS011;4781;48.776;9.200;2023-04-02T20:10:25;5.62;;;3.75;;
9485;SDS011;4781;48.776;9.200;2023-04-02T20:12:53;5.75;;;3.10;;
9485;SDS011;4781;48.776;9.200;2023-04-02T20:15:22;6.80;;;3.27;;
9485;SDS011;4781;48.776;9.200;2023-04-02T20:17:50;5.62;;;3.00;;
9485;SDS011;4781;48.776;9.200;2023-04-02T20:20:19;5.55;;;3.02;;
9485;SDS011;4781;48.776;9.200;2023-04-02T20:22:47;8.20;;;3.27;;
9485;SDS011;4781;48.776;9.200;2023-04-02T20:25:15;6.47;;;3.20;;
9485;SDS011;4781;48.776;9.200;2023-04-02T20:27:44;5.97;;;3.02;;
9485;SDS011;4781;48.776;9.200;2023-04-02T20:30:12;5.93;;;3.30;;
9485;SDS011;4781;48.776;9.200;2023-04-02T20:32:41;5.17;;;3.02;;
9485;SDS011;4781;48.776;9.200;2023-04-02T20:35:10;6.97;;;3.50;;
9485;SDS011;4781;48.776;9.200;2023-04-02T20:37:38;7.83;;;4.50;;
9485;SDS011;4781;48.776;9.200;2023-04-02T20:40:07;9.55;;;4.47;;
9485;SDS011;4781;48.776;9.200;2023-04-02T20:42:36;5.92;;;3.25;;
9485;SDS011;4781;48.776;9.200;2023-04-02T20:45:05;6.33;;;2.92;;
9485;SDS011;4781;48.776;9.200;2023-04-02T20:47:35;5.53;;;3.20;;
9485;SDS011;4781;48.776;9.200;2023-04-02T20:50:03;5.92;;;3.00;;
9485;SDS011;4781;48.776;9.200;2023-04-02T20:52:32;5.67;;;3.02;;
9485;SDS011;4781;48.776;9.200;2023-04-02T20:55:01;5.40;;;2.92;;
9485;SDS011;4781;48.776;9.200;2023-04-02T20:57:29;6.87;;;3.37;;
9485;SDS011;4781;48.776;9.200;2023-04-02T20:59:57;10.93;;;2.90;;
9485;SDS011;4781;48.776;9.200;2023-04-02T21:02:27;4.78;;;2.37;;
9485;SDS011;4781;48.776;9.200;2023-04-02T21:04:56;6.87;;;2.90;;
9485;SDS011;4781;48.776;9.200;2023-04-02T21:07:24;5.72;;;3.30;;
9485;SDS011;4781;48.776;9.200;2023-04-02T21:09:53;6.25;;;2.95;;